sensor_id;sensor_type;location;lat;lon;timestamp;pressure;altitude;pressure_sealevel;temperature;humidity
13420;BME280;6781;58.440;15.470;2023-07-16T00:01:01;100004.13;;;17.53;100.00
13420;BME280;6781;58.440;15.470;2023-07-16T00:03:28;99992.53;;;17.48;100.00
13420;BME280;6781;58.440;15.470;2023-07-16T00:05:55;100118.19;;;18.46;100.00
13420;BME280;6781;58.440;15.470;2023-07-16T00:08:24;100096.69;;;18.21;100.00
13420;BME280;6781;58.440;15.470;2023-07-16T00:10:51;100125.34;;;18.52;100.00
13420;BME280;6781;58.440;15.470;2023-07-16T00:13:18;100124.34;;;18.53;100.00
13420;BME280;6781;58.440;15.470;2023-07-16T00:15:45;100133.03;;;18.53;100.00
13420;BME280;6781;58.440;15.470;2023-07-16T00:18:12;99943.91;;;17.45;100.00
13420;BME280;6781;58.440;15.470;2023-07-16T00:20:39;100143.09;;;18.50;100.00
13420;BME280;6781;58.440;15.470;2023-07-16T00:23:05;100042.13;;;17.87;100.00
13420;BME280;6781;58.440;15.470;2023-07-16T00:25:34;100132.44;;;18.37;100.00
13420;BME280;6781;58.440;15.470;2023-07-16T00:28:01;100026.34;;;17.57;100.00
13420;BME280;6781;58.440;15.470;2023-07-16T00:30:29;100075.59;;;17.85;100.00
13420;BME280;6781;58.440;15.470;2023-07-16T00:32:56;100064.13;;;17.71;100.00
13420;BME280;6781;58.440;15.470;2023-07-16T00:35:23;100088.72;;;17.70;100.00
13420;BME280;6781;58.440;15.470;2023-07-16T00:37:50;100104.91;;;17.74;100.00
13420;BME280;6781;58.440;15.470;2023-07-16T00:40:17;100119.66;;;17.75;100.00
13420;BME280;6781;58.440;15.470;2023-07-16T00:42:46;100202.84;;;18.04;100.00
13420;BME280;6781;58.440;15.470;2023-07-16T00:45:13;100214.53;;;18.01;100.00
13420;BME280;6781;58.440;15.470;2023-07-16T00:47:41;100191.88;;;17.63;100.00
13420;BME280;6781;58.440;15.470;2023-07-16T00:50:10;100118.75;;;17.07;100.00
13420;BME280;6781;58.440;15.470;2023-07-16T00:52:38;100256.13;;;17.67;100.00
13420;BME280;6781;58.440;15.470;2023-07-16T00:55:06;100224.03;;;17.34;100.00
13420;BME280;6781;58.440;15.470;2023-07-16T00:57:34;100114.00;;;16.49;100.00
13420;BME280;6781;58.440;15.470;2023-07-16T01:00:03;100302.09;;;17.54;100.00
13420;BME280;6781;58.440;15.470;2023-07-16T01:02:30;100329.03;;;17.40;100.00
13420;BME280;6781;58.440;15.470;2023-07-16T01:04:58;100267.28;;;16.76;100.00
13420;BME280;6781;58.440;15.470;2023-07-16T01:07:27;100380.66;;;17.40;100.00
13420;BME280;6781;58.440;15.470;2023-07-16T01:09:56;100318.47;;;16.86;100.00
13420;BME280;6781;58.440;15.470;2023-07-16T01:12:23;100428.69;;;17.40;100.00
13420;BME280;6781;58.440;15.470;2023-07-16T01:14:52;100455.47;;;17.28;100.00
13420;BME280;6781;58.440;15.470;2023-07-16T01:17:20;100318.19;;;16.49;100.00
13420;BME280;6781;58.440;15.470;2023-07-16T01:19:47;100429.78;;;17.07;100.00
13420;BME280;6781;58.440;15.470;2023-07-16T01:26:01;100320.84;;;16.24;100.00
13420;BME280;6781;58.440;15.470;2023-07-16T01:28:48;100460.94;;;16.85;100.00
13420;BME280;6781;58.440;15.470;2023-07-16T01:31:21;100543.78;;;17.19;100.00
13420;BME280;6781;58.440;15.470;2023-07-16T01:33:51;100550.81;;;17.18;100.00
13420;BME280;6781;58.440;15.470;2023-07-16T01:36:19;100574.25;;;17.20;100.00
13420;BME280;6781;58.440;15.470;2023-07-16T01:38:47;100606.38;;;17.22;100.00
13420;BME280;6781;58.440;15.470;2023-07-16T01:41:14;100588.81;;;16.90;100.00
13420;BME280;6781;58.440;15.470;2023-07-16T01:43:41;100641.59;;;17.19;100.00
13420;BME280;6781;58.440;15.470;2023-07-16T01:46:08;100663.38;;;17.20;100.00
13420;BME280;6781;58.440;15.470;2023-07-16T01:48:37;100606.81;;;16.85;100.00
13420;BME280;6781;58.440;15.470;2023-07-16T01:51:05;100669.94;;;17.24;100.00
13420;BME280;6781;58.440;15.470;2023-07-16T01:53:32;100490.31;;;16.22;100.00
13420;BME280;6781;58.440;15.470;2023-07-16T01:56:01;100661.41;;;17.14;100.00
13420;BME280;6781;58.440;15.470;2023-07-16T01:58:28;100633.34;;;16.90;100.00
13420;BME280;6781;58.440;15.470;2023-07-16T02:00:55;100622.38;;;16.78;100.00
13420;BME280;6781;58.440;15.470;2023-07-16T02:03:22;100680.44;;;17.24;100.00
13420;BME280;6781;58.440;15.470;2023-07-16T02:08:26;100673.88;;;17.20;100.00
13420;BME280;6781;58.440;15.470;2023-07-16T02:10:53;100591.91;;;16.69;100.00
13420;BME280;6781;58.440;15.470;2023-07-16T02:13:20;100541.88;;;15.96;100.00
13420;BME280;6781;58.440;15.470;2023-07-16T02:15:47;100715.47;;;17.07;100.00
13420;BME280;6781;58.440;15.470;2023-07-16T02:18:14;100709.22;;;17.00;100.00
13420;BME280;6781;58.440;15.470;2023-07-16T02:20:43;100705.25;;;16.87;100.00
13420;BME280;6781;58.440;15.470;2023-07-16T02:23:10;100758.34;;;16.98;100.00
13420;BME280;6781;58.440;15.470;2023-07-16T02:25:38;100770.78;;;16.96;100.00
13420;BME280;6781;58.440;15.470;2023-07-16T02:28:05;100775.34;;;16.94;100.00
13420;BME280;6781;58.440;15.470;2023-07-16T02:30:32;100696.28;;;16.30;100.00
13420;BME280;6781;58.440;15.470;2023-07-16T02:32:59;100726.47;;;16.42;100.00
13420;BME280;6781;58.440;15.470;2023-07-16T02:35:26;100780.16;;;16.72;100.00
13420;BME280;6781;58.440;15.470;2023-07-16T02:37:53;100791.84;;;16.60;100.00
13420;BME280;6781;58.440;15.470;2023-07-16T02:40:20;100745.72;;;16.33;100.00
13420;BME280;6781;58.440;15.470;2023-07-16T02:42:49;100673.00;;;15.93;100.00
13420;BME280;6781;58.440;15.470;2023-07-16T02:45:16;100825.53;;;16.73;100.00
13420;BME280;6781;58.440;15.470;2023-07-16T02:47:43;100814.69;;;16.68;100.00
13420;BME280;6781;58.440;15.470;2023-07-16T02:50:10;100851.66;;;16.90;100.00
13420;BME280;6781;58.440;15.470;2023-07-16T02:52:37;100751.00;;;16.15;100.00
13420;BME280;6781;58.440;15.470;2023-07-16T02:55:05;100872.53;;;16.74;100.00
13420;BME280;6781;58.440;15.470;2023-07-16T02:57:32;100864.72;;;16.82;100.00
13420;BME280;6781;58.440;15.470;2023-07-16T03:00:00;100789.41;;;16.33;100.00
13420;BME280;6781;58.440;15.470;2023-07-16T03:02:28;100863.78;;;16.66;100.00
13420;BME280;6781;58.440;15.470;2023-07-16T03:04:55;100942.31;;;17.01;100.00
13420;BME280;6781;58.440;15.470;2023-07-16T03:07:21;100949.03;;;17.04;100.00
13420;BME280;6781;58.440;15.470;2023-07-16T03:09:49;100934.78;;;17.06;100.00
13420;BME280;6781;58.440;15.470;2023-07-16T03:12:16;100821.53;;;16.43;100.00
13420;BME280;6781;58.440;15.470;2023-07-16T03:14:43;100925.53;;;17.20;100.00
13420;BME280;6781;58.440;15.470;2023-07-16T03:17:11;100847.13;;;16.49;100.00
13420;BME280;6781;58.440;15.470;2023-07-16T03:19:38;100897.28;;;16.80;100.00
13420;BME280;6781;58.440;15.470;2023-07-16T03:22:05;100954.03;;;17.15;100.00
13420;BME280;6781;58.440;15.470;2023-07-16T03:24:32;100899.19;;;16.96;100.00
13420;BME280;6781;58.440;15.470;2023-07-16T03:26:59;100933.75;;;17.25;100.00
13420;BME280;6781;58.440;15.470;2023-07-16T03:29:26;100858.13;;;16.78;100.00
13420;BME280;6781;58.440;15.470;2023-07-16T03:31:53;100937.06;;;17.35;100.00
13420;BME280;6781;58.440;15.470;2023-07-16T03:34:22;100850.34;;;16.86;100.00
13420;BME280;6781;58.440;15.470;2023-07-16T03:36:49;100908.56;;;17.32;100.00
13420;BME280;6781;58.440;15.470;2023-07-16T03:39:16;100855.66;;;17.03;100.00
13420;BME280;6781;58.440;15.470;2023-07-16T03:41:43;100895.59;;;17.31;100.00
13420;BME280;6781;58.440;15.470;2023-07-16T03:44:10;100839.22;;;16.92;100.00
13420;BME280;6781;58.440;15.470;2023-07-16T03:46:37;100841.88;;;17.01;100.00
13420;BME280;6781;58.440;15.470;2023-07-16T03:49:06;100890.91;;;17.50;100.00
13420;BME280;6781;58.440;15.470;2023-07-16T03:51:37;100851.47;;;17.18;100.00
13420;BME280;6781;58.440;15.470;2023-07-16T03:54:04;100865.94;;;17.38;100.00
13420;BME280;6781;58.440;15.470;2023-07-16T03:56:31;100860.69;;;17.38;100.00
13420;BME280;6781;58.440;15.470;2023-07-16T03:58:58;100864.69;;;17.50;100.00
13420;BME280;6781;58.440;15.470;2023-07-16T04:01:25;100847.97;;;17.60;100.00
13420;BME280;6781;58.440;15.470;2023-07-16T04:03:52;100817.75;;;17.31;100.00
13420;BME280;6781;58.440;15.470;2023-07-16T04:06:19;100611.63;;;16.13;100.00
13420;BME280;6781;58.440;15.470;2023-07-16T04:08:48;100864.78;;;17.83;100.00
13420;BME280;6781;58.440;15.470;2023-07-16T04:11:15;100878.09;;;17.89;100.00
13420;BME280;6781;58.440;15.470;2023-07-16T04:13:42;100846.75;;;17.88;100.00
13420;BME280;6781;58.440;15.470;2023-07-16T04:16:09;100769.91;;;17.29;100.00
13420;BME280;6781;58.440;15.470;2023-07-16T04:18:36;100736.78;;;17.36;100.00
13420;BME280;6781;58.440;15.470;2023-07-16T04:21:03;100771.13;;;17.67;100.00
13420;BME280;6781;58.440;15.470;2023-07-16T04:23:30;100823.28;;;17.86;100.00
13420;BME280;6781;58.440;15.470;2023-07-16T04:25:58;100730.06;;;17.42;100.00
13420;BME280;6781;58.440;15.470;2023-07-16T04:28:25;100796.06;;;17.87;100.00
13420;BME280;6781;58.440;15.470;2023-07-16T04:30:52;100773.59;;;17.69;100.00
13420;BME280;6781;58.440;15.470;2023-07-16T04:33:19;100635.78;;;16.75;100.00
13420;BME280;6781;58.440;15.470;2023-07-16T04:35:46;100737.47;;;17.30;100.00
13420;BME280;6781;58.440;15.470;2023-07-16T04:38:14;100717.78;;;17.18;100.00
13420;BME280;6781;58.440;15.470;2023-07-16T04:40:42;100751.78;;;17.68;100.00
13420;BME280;6781;58.440;15.470;2023-07-16T04:43:10;100758.66;;;17.77;100.00
13420;BME280;6781;58.440;15.470;2023-07-16T04:45:37;100623.38;;;16.94;100.00
13420;BME280;6781;58.440;15.470;2023-07-16T04:48:05;100773.91;;;17.66;100.00
13420;BME280;6781;58.440;15.470;2023-07-16T04:50:32;100749.44;;;17.57;100.00
13420;BME280;6781;58.440;15.470;2023-07-16T04:52:59;100716.78;;;17.19;100.00
13420;BME280;6781;58.440;15.470;2023-07-16T04:55:26;100830.84;;;17.81;100.00
13420;BME280;6781;58.440;15.470;2023-07-16T04:57:53;100820.16;;;17.67;100.00
13420;BME280;6781;58.440;15.470;2023-07-16T05:00:23;100868.06;;;17.85;100.00
13420;BME280;6781;58.440;15.470;2023-07-16T05:02:50;100759.84;;;17.08;100.00
13420;BME280;6781;58.440;15.470;2023-07-16T05:05:17;100753.69;;;16.83;100.00
13420;BME280;6781;58.440;15.470;2023-07-16T05:07:44;100926.44;;;17.79;100.00
13420;BME280;6781;58.440;15.470;2023-07-16T05:10:11;100842.16;;;17.82;100.00
13420;BME280;6781;58.440;15.470;2023-07-16T05:12:39;100784.53;;;17.56;100.00
13420;BME280;6781;58.440;15.470;2023-07-16T05:15:07;100831.06;;;17.46;100.00
13420;BME280;6781;58.440;15.470;2023-07-16T05:17:35;100853.88;;;17.53;100.00
13420;BME280;6781;58.440;15.470;2023-07-16T05:20:03;100763.28;;;17.09;100.00
13420;BME280;6781;58.440;15.470;2023-07-16T05:22:30;100715.91;;;16.94;100.00
13420;BME280;6781;58.440;15.470;2023-07-16T05:24:57;100764.00;;;17.27;100.00
13420;BME280;6781;58.440;15.470;2023-07-16T05:27:24;100845.78;;;17.97;100.00
13420;BME280;6781;58.440;15.470;2023-07-16T05:29:51;100810.63;;;17.66;100.00
13420;BME280;6781;58.440;15.470;2023-07-16T05:32:18;100899.44;;;18.03;100.00
13420;BME280;6781;58.440;15.470;2023-07-16T05:34:49;100924.53;;;17.97;100.00
13420;BME280;6781;58.440;15.470;2023-07-16T05:37:16;100908.47;;;18.00;100.00
13420;BME280;6781;58.440;15.470;2023-07-16T05:39:43;100754.13;;;17.13;100.00
13420;BME280;6781;58.440;15.470;2023-07-16T05:42:10;100923.22;;;18.01;100.00
13420;BME280;6781;58.440;15.470;2023-07-16T05:44:37;100911.41;;;17.97;100.00
13420;BME280;6781;58.440;15.470;2023-07-16T05:47:04;100935.34;;;17.94;100.00
13420;BME280;6781;58.440;15.470;2023-07-16T05:49:31;100900.22;;;17.79;100.00
13420;BME280;6781;58.440;15.470;2023-07-16T05:52:00;100778.09;;;16.84;100.00
13420;BME280;6781;58.440;15.470;2023-07-16T05:54:27;100958.94;;;17.86;100.00
13420;BME280;6781;58.440;15.470;2023-07-16T05:56:54;100931.69;;;17.45;100.00
13420;BME280;6781;58.440;15.470;2023-07-16T05:59:21;101025.16;;;17.72;100.00
13420;BME280;6781;58.440;15.470;2023-07-16T06:01:48;100928.09;;;17.46;100.00
13420;BME280;6781;58.440;15.470;2023-07-16T06:04:15;100832.03;;;16.95;100.00
13420;BME280;6781;58.440;15.470;2023-07-16T06:06:42;100927.28;;;17.87;100.00
13420;BME280;6781;58.440;15.470;2023-07-16T06:09:10;100797.34;;;17.01;100.00
13420;BME280;6781;58.440;15.470;2023-07-16T06:11:37;100864.88;;;17.65;100.00
13420;BME280;6781;58.440;15.470;2023-07-16T06:14:05;100878.78;;;18.08;100.00
13420;BME280;6781;58.440;15.470;2023-07-16T06:16:32;100820.53;;;17.30;100.00
13420;BME280;6781;58.440;15.470;2023-07-16T06:18:59;100911.34;;;17.73;100.00
13420;BME280;6781;58.440;15.470;2023-07-16T06:21:26;100939.88;;;17.76;100.00
13420;BME280;6781;58.440;15.470;2023-07-16T06:39:25;101149.88;;;17.84;100.00
13420;BME280;6781;58.440;15.470;2023-07-16T06:41:52;101194.69;;;17.91;100.00
13420;BME280;6781;58.440;15.470;2023-07-16T06:44:19;101215.03;;;17.88;100.00
13420;BME280;6781;58.440;15.470;2023-07-16T06:46:46;101192.59;;;17.94;100.00
13420;BME280;6781;58.440;15.470;2023-07-16T06:49:13;101175.31;;;17.66;100.00
13420;BME280;6781;58.440;15.470;2023-07-16T06:51:40;101110.09;;;17.27;100.00
13420;BME280;6781;58.440;15.470;2023-07-16T06:54:07;101199.22;;;17.63;100.00
13420;BME280;6781;58.440;15.470;2023-07-16T06:56:36;101234.06;;;17.91;100.00
13420;BME280;6781;58.440;15.470;2023-07-16T06:59:03;101246.44;;;17.98;100.00
13420;BME280;6781;58.440;15.470;2023-07-16T07:01:30;101222.75;;;17.54;100.00
13420;BME280;6781;58.440;15.470;2023-07-16T07:03:57;101248.09;;;17.64;100.00
13420;BME280;6781;58.440;15.470;2023-07-16T07:06:24;101287.56;;;17.72;100.00
13420;BME280;6781;58.440;15.470;2023-07-16T07:08:50;101254.75;;;17.58;100.00
13420;BME280;6781;58.440;15.470;2023-07-16T07:11:18;101303.50;;;17.96;100.00
13420;BME280;6781;58.440;15.470;2023-07-16T07:13:46;101214.53;;;17.14;100.00
13420;BME280;6781;58.440;15.470;2023-07-16T07:16:13;101395.63;;;18.20;100.00
13420;BME280;6781;58.440;15.470;2023-07-16T07:18:40;101392.69;;;18.24;100.00
13420;BME280;6781;58.440;15.470;2023-07-16T07:21:07;101379.50;;;18.15;100.00
13420;BME280;6781;58.440;15.470;2023-07-16T07:23:34;101348.34;;;18.20;100.00
13420;BME280;6781;58.440;15.470;2023-07-16T07:26:01;101361.63;;;18.37;100.00
13420;BME280;6781;58.440;15.470;2023-07-16T07:28:28;101202.00;;;17.43;100.00
13420;BME280;6781;58.440;15.470;2023-07-16T07:30:56;101337.72;;;18.48;100.00
13420;BME280;6781;58.440;15.470;2023-07-16T07:33:23;101230.19;;;17.77;100.00
13420;BME280;6781;58.440;15.470;2023-07-16T07:35:53;101078.50;;;17.11;100.00
13420;BME280;6781;58.440;15.470;2023-07-16T07:38:20;101298.63;;;18.45;100.00
13420;BME280;6781;58.440;15.470;2023-07-16T07:40:47;101344.00;;;18.55;100.00
13420;BME280;6781;58.440;15.470;2023-07-16T07:43:16;101312.88;;;18.16;100.00
13420;BME280;6781;58.440;15.470;2023-07-16T07:45:43;101393.56;;;18.50;100.00
13420;BME280;6781;58.440;15.470;2023-07-16T07:48:12;101347.25;;;18.05;100.00
13420;BME280;6781;58.440;15.470;2023-07-16T07:50:39;101258.66;;;17.89;100.00
13420;BME280;6781;58.440;15.470;2023-07-16T07:53:06;101290.03;;;18.35;100.00
13420;BME280;6781;58.440;15.470;2023-07-16T07:55:33;101145.25;;;17.60;100.00
13420;BME280;6781;58.440;15.470;2023-07-16T07:58:01;101166.22;;;18.04;100.00
13420;BME280;6781;58.440;15.470;2023-07-16T08:00:28;101090.47;;;17.83;100.00
13420;BME280;6781;58.440;15.470;2023-07-16T08:02:54;101142.19;;;18.16;100.00
13420;BME280;6781;58.440;15.470;2023-07-16T08:05:23;101113.91;;;18.10;100.00
13420;BME280;6781;58.440;15.470;2023-07-16T08:07:50;101091.94;;;18.11;100.00
13420;BME280;6781;58.440;15.470;2023-07-16T08:10:17;100939.00;;;17.25;100.00
13420;BME280;6781;58.440;15.470;2023-07-16T08:12:45;100882.94;;;17.18;100.00
13420;BME280;6781;58.440;15.470;2023-07-16T08:15:12;100873.69;;;17.48;100.00
13420;BME280;6781;58.440;15.470;2023-07-16T08:17:40;100928.66;;;18.16;100.00
13420;BME280;6781;58.440;15.470;2023-07-16T08:20:08;100912.91;;;18.16;100.00
13420;BME280;6781;58.440;15.470;2023-07-16T08:22:37;100863.53;;;18.19;100.00
13420;BME280;6781;58.440;15.470;2023-07-16T08:25:06;100791.97;;;17.93;100.00
13420;BME280;6781;58.440;15.470;2023-07-16T08:27:34;100669.59;;;17.43;100.00
13420;BME280;6781;58.440;15.470;2023-07-16T08:30:01;100858.09;;;18.21;100.00
13420;BME280;6781;58.440;15.470;2023-07-16T08:32:28;100886.78;;;17.98;100.00
13420;BME280;6781;58.440;15.470;2023-07-16T08:34:56;100945.88;;;18.10;100.00
13420;BME280;6781;58.440;15.470;2023-07-16T08:37:24;100943.75;;;18.06;100.00
13420;BME280;6781;58.440;15.470;2023-07-16T08:39:53;100929.41;;;17.84;100.00
13420;BME280;6781;58.440;15.470;2023-07-16T08:42:20;100848.03;;;17.17;100.00
13420;BME280;6781;58.440;15.470;2023-07-16T08:44:48;100953.59;;;18.04;100.00
13420;BME280;6781;58.440;15.470;2023-07-16T08:47:16;100806.94;;;17.26;100.00
13420;BME280;6781;58.440;15.470;2023-07-16T08:49:53;100804.63;;;17.23;100.00
13420;BME280;6781;58.440;15.470;2023-07-16T08:52:20;100929.13;;;18.03;100.00
13420;BME280;6781;58.440;15.470;2023-07-16T08:54:47;100914.06;;;17.63;100.00
13420;BME280;6781;58.440;15.470;2023-07-16T08:57:16;100947.34;;;18.05;100.00
13420;BME280;6781;58.440;15.470;2023-07-16T08:59:47;100948.44;;;17.86;100.00
13420;BME280;6781;58.440;15.470;2023-07-16T09:02:17;100959.50;;;17.64;100.00
13420;BME280;6781;58.440;15.470;2023-07-16T09:04:44;100964.53;;;17.91;100.00
13420;BME280;6781;58.440;15.470;2023-07-16T09:07:13;100841.22;;;16.99;100.00
13420;BME280;6781;58.440;15.470;2023-07-16T09:09:40;100943.16;;;17.78;100.00
13420;BME280;6781;58.440;15.470;2023-07-16T09:12:11;100998.41;;;18.10;100.00
13420;BME280;6781;58.440;15.470;2023-07-16T09:14:42;100980.38;;;18.15;100.00
13420;BME280;6781;58.440;15.470;2023-07-16T09:17:10;100932.28;;;18.15;100.00
13420;BME280;6781;58.440;15.470;2023-07-16T09:19:37;100936.41;;;18.50;100.00
13420;BME280;6781;58.440;15.470;2023-07-16T09:22:04;100834.97;;;18.16;100.00
13420;BME280;6781;58.440;15.470;2023-07-16T09:24:31;100875.69;;;18.61;100.00
13420;BME280;6781;58.440;15.470;2023-07-16T09:26:58;100939.34;;;19.04;100.00
13420;BME280;6781;58.440;15.470;2023-07-16T09:29:27;100924.19;;;19.14;100.00
13420;BME280;6781;58.440;15.470;2023-07-16T09:31:56;100875.81;;;19.23;100.00
13420;BME280;6781;58.440;15.470;2023-07-16T09:34:27;100854.38;;;19.42;100.00
13420;BME280;6781;58.440;15.470;2023-07-16T09:36:54;100818.91;;;19.30;100.00
13420;BME280;6781;58.440;15.470;2023-07-16T09:39:22;100719.91;;;18.83;100.00
13420;BME280;6781;58.440;15.470;2023-07-16T09:41:50;100745.78;;;19.57;100.00
13420;BME280;6781;58.440;15.470;2023-07-16T09:44:18;100684.13;;;19.51;100.00
13420;BME280;6781;58.440;15.470;2023-07-16T09:46:46;100613.09;;;19.28;100.00
13420;BME280;6781;58.440;15.470;2023-07-16T09:49:15;100719.41;;;20.17;100.00
13420;BME280;6781;58.440;15.470;2023-07-16T09:51:43;100475.88;;;19.25;100.00
13420;BME280;6781;58.440;15.470;2023-07-16T09:54:13;100664.75;;;21.06;100.00
13420;BME280;6781;58.440;15.470;2023-07-16T09:56:44;100445.63;;;20.52;100.00
13420;BME280;6781;58.440;15.470;2023-07-16T09:59:14;100421.69;;;21.09;100.00
13420;BME280;6781;58.440;15.470;2023-07-16T10:01:42;100475.03;;;22.15;100.00
13420;BME280;6781;58.440;15.470;2023-07-16T10:04:13;100430.78;;;22.50;100.00
13420;BME280;6781;58.440;15.470;2023-07-16T10:06:55;100245.56;;;22.25;100.00
13420;BME280;6781;58.440;15.470;2023-07-16T10:09:32;100310.09;;;23.40;100.00
13420;BME280;6781;58.440;15.470;2023-07-16T10:12:18;100276.44;;;23.47;100.00
13420;BME280;6781;58.440;15.470;2023-07-16T10:14:46;100057.22;;;22.81;100.00
13420;BME280;6781;58.440;15.470;2023-07-16T10:17:15;100011.88;;;23.02;100.00
13420;BME280;6781;58.440;15.470;2023-07-16T10:19:54;100106.78;;;23.91;100.00
13420;BME280;6781;58.440;15.470;2023-07-16T10:22:33;99981.72;;;23.46;100.00
13420;BME280;6781;58.440;15.470;2023-07-16T10:25:01;100103.25;;;24.16;100.00
13420;BME280;6781;58.440;15.470;2023-07-16T10:27:33;100056.34;;;24.16;100.00
13420;BME280;6781;58.440;15.470;2023-07-16T10:30:02;99908.94;;;23.37;100.00
13420;BME280;6781;58.440;15.470;2023-07-16T10:32:32;100090.34;;;24.67;100.00
13420;BME280;6781;58.440;15.470;2023-07-16T10:34:59;100045.38;;;24.73;100.00
13420;BME280;6781;58.440;15.470;2023-07-16T10:37:26;100051.34;;;25.56;100.00
13420;BME280;6781;58.440;15.470;2023-07-16T10:39:57;100044.56;;;25.49;100.00
13420;BME280;6781;58.440;15.470;2023-07-16T10:42:25;99886.66;;;24.46;100.00
13420;BME280;6781;58.440;15.470;2023-07-16T10:44:54;100017.25;;;24.95;100.00
13420;BME280;6781;58.440;15.470;2023-07-16T10:47:23;100045.34;;;25.61;100.00
13420;BME280;6781;58.440;15.470;2023-07-16T10:49:51;100042.41;;;25.98;100.00
13420;BME280;6781;58.440;15.470;2023-07-16T10:52:20;100042.00;;;25.30;100.00
13420;BME280;6781;58.440;15.470;2023-07-16T10:54:47;100054.00;;;24.98;100.00
13420;BME280;6781;58.440;15.470;2023-07-16T10:57:16;100038.09;;;25.45;100.00
13420;BME280;6781;58.440;15.470;2023-07-16T10:59:45;99918.22;;;24.36;100.00
13420;BME280;6781;58.440;15.470;2023-07-16T11:02:14;100033.94;;;24.72;100.00
13420;BME280;6781;58.440;15.470;2023-07-16T11:04:43;100043.94;;;24.58;100.00
13420;BME280;6781;58.440;15.470;2023-07-16T11:07:12;99918.44;;;23.93;100.00
13420;BME280;6781;58.440;15.470;2023-07-16T11:09:43;100062.53;;;25.00;100.00
13420;BME280;6781;58.440;15.470;2023-07-16T11:12:18;99868.38;;;24.15;100.00
13420;BME280;6781;58.440;15.470;2023-07-16T11:14:47;99979.75;;;24.80;100.00
13420;BME280;6781;58.440;15.470;2023-07-16T11:17:15;100007.72;;;25.29;100.00
13420;BME280;6781;58.440;15.470;2023-07-16T11:19:45;99987.75;;;25.03;100.00
13420;BME280;6781;58.440;15.470;2023-07-16T11:22:13;99967.84;;;24.71;100.00
13420;BME280;6781;58.440;15.470;2023-07-16T11:24:41;99968.09;;;24.81;100.00
13420;BME280;6781;58.440;15.470;2023-07-16T11:27:18;99875.16;;;23.99;100.00
13420;BME280;6781;58.440;15.470;2023-07-16T11:29:45;99865.59;;;23.68;100.00
13420;BME280;6781;58.440;15.470;2023-07-16T11:32:13;99994.59;;;24.57;100.00
13420;BME280;6781;58.440;15.470;2023-07-16T11:34:52;100036.84;;;24.71;100.00
13420;BME280;6781;58.440;15.470;2023-07-16T11:37:20;100013.56;;;24.96;100.00
13420;BME280;6781;58.440;15.470;2023-07-16T11:39:48;99981.78;;;24.54;100.00
13420;BME280;6781;58.440;15.470;2023-07-16T11:42:19;100020.88;;;25.01;100.00
13420;BME280;6781;58.440;15.470;2023-07-16T11:44:49;100031.19;;;24.79;100.00
13420;BME280;6781;58.440;15.470;2023-07-16T11:47:16;99967.72;;;24.54;100.00
13420;BME280;6781;58.440;15.470;2023-07-16T11:49:43;99972.22;;;24.53;100.00
13420;BME280;6781;58.440;15.470;2023-07-16T11:52:10;99995.94;;;24.48;100.00
13420;BME280;6781;58.440;15.470;2023-07-16T11:54:37;100018.59;;;24.62;100.00
13420;BME280;6781;58.440;15.470;2023-07-16T11:57:05;100019.75;;;24.66;100.00
13420;BME280;6781;58.440;15.470;2023-07-16T11:59:34;100028.38;;;25.39;100.00
13420;BME280;6781;58.440;15.470;2023-07-16T12:02:01;99982.22;;;25.28;100.00
13420;BME280;6781;58.440;15.470;2023-07-16T12:04:29;99975.66;;;25.82;100.00
13420;BME280;6781;58.440;15.470;2023-07-16T12:06:56;99965.59;;;25.84;100.00
13420;BME280;6781;58.440;15.470;2023-07-16T12:09:23;99881.00;;;25.53;100.00
13420;BME280;6781;58.440;15.470;2023-07-16T12:11:50;99831.00;;;25.50;100.00
13420;BME280;6781;58.440;15.470;2023-07-16T12:14:17;99970.56;;;26.38;100.00
13420;BME280;6781;58.440;15.470;2023-07-16T12:16:46;99880.56;;;25.84;100.00
13420;BME280;6781;58.440;15.470;2023-07-16T12:19:13;99917.38;;;25.92;100.00
13420;BME280;6781;58.440;15.470;2023-07-16T12:21:40;99898.63;;;25.30;100.00
13420;BME280;6781;58.440;15.470;2023-07-16T12:24:07;99803.41;;;25.22;100.00
13420;BME280;6781;58.440;15.470;2023-07-16T12:26:34;99843.28;;;24.76;100.00
13420;BME280;6781;58.440;15.470;2023-07-16T12:29:01;99956.50;;;25.80;100.00
13420;BME280;6781;58.440;15.470;2023-07-16T12:31:30;99962.13;;;25.84;100.00
13420;BME280;6781;58.440;15.470;2023-07-16T12:33:59;99980.59;;;26.19;100.00
13420;BME280;6781;58.440;15.470;2023-07-16T12:36:29;99968.81;;;26.15;100.00
13420;BME280;6781;58.440;15.470;2023-07-16T12:38:56;99925.50;;;25.86;100.00
13420;BME280;6781;58.440;15.470;2023-07-16T12:41:23;99893.03;;;25.44;100.00
13420;BME280;6781;58.440;15.470;2023-07-16T12:43:50;99988.50;;;26.31;100.00
13420;BME280;6781;58.440;15.470;2023-07-16T12:46:17;99971.56;;;26.20;100.00
13420;BME280;6781;58.440;15.470;2023-07-16T12:48:44;99949.38;;;26.59;100.00
13420;BME280;6781;58.440;15.470;2023-07-16T12:51:13;99789.00;;;25.75;100.00
13420;BME280;6781;58.440;15.470;2023-07-16T12:53:40;99972.19;;;27.22;100.00
13420;BME280;6781;58.440;15.470;2023-07-16T12:56:09;99908.78;;;26.19;100.00
13420;BME280;6781;58.440;15.470;2023-07-16T12:58:36;99960.75;;;26.72;100.00
13420;BME280;6781;58.440;15.470;2023-07-16T13:01:03;99963.25;;;26.78;100.00
13420;BME280;6781;58.440;15.470;2023-07-16T13:03:30;99909.53;;;26.81;100.00
13420;BME280;6781;58.440;15.470;2023-07-16T13:05:57;99944.13;;;26.98;99.84